createdAt,value
2022-12-01T00:01:32.177Z,102972.31
2022-12-01T00:04:00.395Z,102961.56
2022-12-01T00:06:28.615Z,102963.28
2022-12-01T00:09:19.535Z,102961.69
2022-12-01T00:11:50.522Z,102951.38
2022-12-01T00:14:19.526Z,102953.81
2022-12-01T00:16:47.875Z,102964.84
2022-12-01T00:19:16.169Z,102959.94
2022-12-01T00:21:44.480Z,102959.50
2022-12-01T00:24:14.502Z,102950.50
2022-12-01T00:26:42.732Z,102952.63
2022-12-01T00:29:12.364Z,102955.75
2022-12-01T00:31:40.574Z,102956.41
2022-12-01T00:34:11.527Z,102949.84
2022-12-01T00:36:40.570Z,102949.53
2022-12-01T00:39:08.873Z,102954.75
2022-12-01T00:41:37.063Z,102954.56
2022-12-01T00:44:06.063Z,102952.69
2022-12-01T00:46:35.945Z,102953.31
2022-12-01T00:49:04.449Z,102953.31
2022-12-01T00:51:33.079Z,102953.31
2022-12-01T00:54:01.249Z,102949.72
2022-12-01T00:56:29.488Z,102957.09
2022-12-01T00:58:57.973Z,102955.19
2022-12-01T01:01:26.303Z,102953.63
2022-12-01T01:03:55.937Z,102956.00
2022-12-01T01:06:24.232Z,102954.19
2022-12-01T01:08:52.443Z,102959.31
2022-12-01T01:11:20.721Z,102958.03
2022-12-01T01:13:49.016Z,102968.19
2022-12-01T01:16:20.710Z,102961.50
2022-12-01T01:18:49.867Z,102953.38
2022-12-01T01:21:21.137Z,102954.44
2022-12-01T01:23:49.579Z,102951.16
2022-12-01T01:26:19.554Z,102950.78
2022-12-01T01:28:48.129Z,102952.84
2022-12-01T01:31:18.769Z,102944.91
2022-12-01T01:33:47.635Z,102944.78
2022-12-01T01:36:17.115Z,102945.66
2022-12-01T01:38:47.736Z,102943.19
2022-12-01T01:41:16.459Z,102943.13
2022-12-01T01:43:46.773Z,102940.03
2022-12-01T01:46:17.115Z,102942.69
2022-12-01T01:48:47.718Z,102946.56
2022-12-01T01:51:17.179Z,102930.13
2022-12-01T01:53:47.383Z,102935.94
2022-12-01T01:56:15.591Z,102939.09
2022-12-01T01:58:44.096Z,102937.84
2022-12-01T02:01:12.502Z,102938.00
2022-12-01T02:03:42.190Z,102950.06
2022-12-01T02:06:11.357Z,102952.69
2022-12-01T02:08:39.561Z,102965.59
2022-12-01T02:11:48.707Z,102950.81
2022-12-01T02:14:42.996Z,102952.97
2022-12-01T02:17:18.997Z,102953.50
2022-12-01T02:20:11.949Z,102967.75
2022-12-01T02:22:48.268Z,102959.47
2022-12-01T02:25:23.341Z,102961.84
2022-12-01T02:28:07.804Z,102955.06
2022-12-01T02:30:40.672Z,102957.25
2022-12-01T02:33:14.527Z,102959.06
2022-12-01T02:35:48.061Z,102960.66
2022-12-01T02:38:21.692Z,102957.50
2022-12-01T02:40:53.840Z,102952.44
2022-12-01T02:43:27.573Z,102953.50
2022-12-01T02:46:00.582Z,102941.09
2022-12-01T02:48:29.736Z,102952.41
2022-12-01T02:51:00.173Z,102955.69
2022-12-01T02:53:29.375Z,102949.34
2022-12-01T02:56:00.087Z,102953.13
2022-12-01T02:58:28.294Z,102946.44
2022-12-01T03:01:14.180Z,102946.47
2022-12-01T03:03:52.907Z,102940.53
2022-12-01T03:06:25.988Z,102945.47
2022-12-01T03:08:54.352Z,102938.22
2022-12-01T03:11:30.663Z,102938.50
2022-12-01T03:14:09.664Z,102939.09
2022-12-01T03:16:44.392Z,102942.00
2022-12-01T03:19:15.674Z,102953.00
2022-12-01T03:21:48.144Z,102946.19
2022-12-01T03:24:19.600Z,102946.63
2022-12-01T03:26:49.880Z,102945.59
2022-12-01T03:29:21.156Z,102937.72
2022-12-01T03:31:54.616Z,102942.88
2022-12-01T03:34:27.197Z,102937.19
2022-12-01T03:36:59.336Z,102932.31
2022-12-01T03:39:32.861Z,102937.94
2022-12-01T03:42:05.078Z,102938.66
2022-12-01T03:44:38.261Z,102943.28
2022-12-01T03:47:10.708Z,102929.53
2022-12-01T03:49:39.643Z,102938.50
2022-12-01T03:52:15.720Z,102934.59
2022-12-01T03:54:53.379Z,102932.94
2022-12-01T03:57:26.723Z,102938.09
2022-12-01T03:59:55.410Z,102930.97
2022-12-01T04:02:28.045Z,102935.47
2022-12-01T04:04:56.410Z,102925.19
2022-12-01T04:07:24.687Z,102934.59
2022-12-01T04:09:53.017Z,102945.53
2022-12-01T04:12:34.072Z,102943.88
2022-12-01T04:15:03.604Z,102930.88
2022-12-01T04:17:34.428Z,102935.84
2022-12-01T04:20:03.358Z,102931.88
2022-12-01T04:22:32.533Z,102937.19
2022-12-01T04:25:01.129Z,102929.09
2022-12-01T04:27:29.480Z,102932.94
2022-12-01T04:29:57.793Z,102935.03
2022-12-01T04:32:26.189Z,102934.88
2022-12-01T04:34:55.932Z,102931.03
2022-12-01T04:37:24.294Z,102934.91
2022-12-01T04:39:52.654Z,102932.06
2022-12-01T04:42:21.061Z,102947.06
2022-12-01T04:44:49.369Z,102944.94
2022-12-01T04:47:17.581Z,102952.84
2022-12-01T04:49:45.996Z,102957.16
2022-12-01T04:52:16.012Z,102948.84
2022-12-01T04:54:44.665Z,102942.13
2022-12-01T04:57:13.884Z,102946.94
2022-12-01T04:59:42.153Z,102951.25
2022-12-01T05:02:10.494Z,102957.78
2022-12-01T05:04:41.692Z,102953.44
2022-12-01T05:07:10.508Z,102956.25
2022-12-01T05:09:40.124Z,102955.44
2022-12-01T05:12:08.592Z,102960.72
2022-12-01T05:14:36.889Z,102961.81
2022-12-01T05:17:05.028Z,102950.81
2022-12-01T05:19:50.732Z,102951.53
2022-12-01T05:22:36.431Z,102960.34
2022-12-01T05:25:09.657Z,102958.34
2022-12-01T05:27:38.416Z,102968.75
2022-12-01T05:30:07.853Z,102967.81
2022-12-01T05:32:36.296Z,102969.06
2022-12-01T05:35:05.419Z,102973.06
2022-12-01T05:37:34.785Z,102972.00
2022-12-01T05:40:03.148Z,102981.16
2022-12-01T05:42:33.116Z,102970.75
2022-12-01T05:45:01.624Z,102981.13
2022-12-01T05:47:31.904Z,102974.56
2022-12-01T05:50:05.226Z,102981.31
2022-12-01T05:52:35.000Z,102976.47
2022-12-01T05:55:03.245Z,102981.91
2022-12-01T05:57:36.736Z,102967.63
2022-12-01T06:00:06.933Z,102982.91
2022-12-01T06:02:35.377Z,102985.75
2022-12-01T06:05:03.787Z,102994.72
2022-12-01T06:07:32.517Z,102987.06
2022-12-01T06:10:00.703Z,102992.25
2022-12-01T06:12:29.227Z,102975.22
2022-12-01T06:14:58.834Z,102980.88
2022-12-01T06:17:27.089Z,102973.28
2022-12-01T06:19:55.401Z,102974.28
2022-12-01T06:22:23.568Z,102969.88
2022-12-01T06:24:51.792Z,102972.41
2022-12-01T06:27:20.120Z,102971.75
2022-12-01T06:29:49.706Z,102973.53
2022-12-01T06:32:19.819Z,102975.47
2022-12-01T06:34:48.105Z,102973.72
2022-12-01T06:37:16.874Z,102980.66
2022-12-01T06:39:45.157Z,102978.63
2022-12-01T06:42:13.500Z,102977.41
2022-12-01T06:44:41.673Z,102983.53
2022-12-01T06:47:09.837Z,102978.69
2022-12-01T06:49:39.583Z,102988.66
2022-12-01T06:52:07.764Z,102981.72
2022-12-01T06:54:37.593Z,102988.91
2022-12-01T06:57:05.932Z,102988.56
2022-12-01T06:59:34.389Z,102990.06
2022-12-01T07:02:03.215Z,102976.91
2022-12-01T07:04:32.981Z,102981.72
2022-12-01T07:07:02.590Z,102975.03
2022-12-01T07:09:30.837Z,102990.03
2022-12-01T07:11:59.293Z,102986.75
2022-12-01T07:14:28.087Z,102987.09
2022-12-01T07:16:56.365Z,102978.72
2022-12-01T07:19:24.842Z,102992.72
2022-12-01T07:21:53.092Z,102990.66
2022-12-01T07:24:22.687Z,102986.41
2022-12-01T07:26:50.952Z,102992.72
2022-12-01T07:29:19.330Z,102991.34
2022-12-01T07:31:47.521Z,102990.28
2022-12-01T07:34:16.365Z,102990.97
2022-12-01T07:36:45.092Z,102973.78
2022-12-01T07:39:13.410Z,102991.59
2022-12-01T07:41:43.193Z,103007.31
2022-12-01T07:44:12.007Z,103002.47
2022-12-01T07:46:40.251Z,102996.75
2022-12-01T07:49:10.792Z,103005.91
2022-12-01T07:51:39.017Z,102999.00
2022-12-01T07:54:07.895Z,102975.72
2022-12-01T07:56:36.333Z,102997.75
2022-12-01T07:59:06.069Z,102996.41
2022-12-01T08:01:34.393Z,102997.09
2022-12-01T08:04:02.775Z,102989.31
2022-12-01T08:06:31.805Z,102996.22
2022-12-01T08:09:00.677Z,102987.19
2022-12-01T08:11:30.698Z,102989.00
2022-12-01T08:13:59.067Z,102988.50
2022-12-01T08:16:28.601Z,102987.38
2022-12-01T08:18:56.913Z,102989.97
2022-12-01T08:21:25.638Z,103001.50
2022-12-01T08:23:55.208Z,103004.19
2022-12-01T08:26:24.752Z,102999.03
2022-12-01T08:28:53.284Z,102987.50
2022-12-01T08:31:23.232Z,102976.13
2022-12-01T08:33:53.159Z,102975.72
2022-12-01T08:36:21.871Z,102969.56
2022-12-01T08:38:52.036Z,102982.97
2022-12-01T08:41:21.169Z,102977.84
2022-12-01T08:43:58.505Z,102984.03
2022-12-01T08:46:28.353Z,102981.66
2022-12-01T08:48:58.320Z,102978.13
2022-12-01T08:51:27.282Z,102966.28
2022-12-01T08:53:57.239Z,102961.78
2022-12-01T08:56:27.373Z,102960.28
2022-12-01T08:58:56.011Z,102956.63
2022-12-01T09:01:25.918Z,102951.66
2022-12-01T09:04:06.103Z,102970.09
2022-12-01T09:06:40.307Z,102960.84
2022-12-01T09:09:08.820Z,102957.63
2022-12-01T09:11:37.690Z,102957.44
2022-12-01T09:14:06.138Z,102956.19
2022-12-01T09:16:34.518Z,102951.63
2022-12-01T09:19:02.933Z,102953.59
2022-12-01T09:21:32.740Z,102912.66
2022-12-01T09:24:02.739Z,102961.38
2022-12-01T09:26:31.069Z,102962.50
2022-12-01T09:29:01.496Z,102963.56
2022-12-01T09:31:29.835Z,102952.06
2022-12-01T09:33:59.391Z,102946.81
2022-12-01T09:36:30.470Z,102959.38
2022-12-01T09:38:58.963Z,102955.84
2022-12-01T09:41:32.825Z,102951.09
2022-12-01T09:44:06.080Z,102942.41
2022-12-01T09:46:35.935Z,102940.69
2022-12-01T09:49:05.487Z,102952.78
2022-12-01T09:51:36.396Z,102941.34
2022-12-01T09:54:05.101Z,102939.94
2022-12-01T09:56:41.008Z,102937.75
2022-12-01T09:59:12.305Z,102934.38
2022-12-01T10:01:44.469Z,102921.72
2022-12-01T10:04:15.369Z,102935.78
2022-12-01T10:06:47.784Z,102941.50
2022-12-01T10:09:23.462Z,102942.28
2022-12-01T10:11:56.628Z,102934.91
2022-12-01T10:14:26.044Z,102933.59
2022-12-01T10:17:03.748Z,102939.56
2022-12-01T10:19:36.368Z,102944.09
2022-12-01T10:22:17.540Z,102935.06
2022-12-01T10:24:55.020Z,102934.28
2022-12-01T10:27:40.315Z,102930.47
2022-12-01T10:30:11.580Z,102940.09
2022-12-01T10:32:47.984Z,102925.47
2022-12-01T10:35:18.444Z,102923.69
2022-12-01T10:37:47.597Z,102921.88
2022-12-01T10:40:18.504Z,102927.91
2022-12-01T10:42:49.985Z,102927.91
2022-12-01T10:45:23.264Z,102930.94
2022-12-01T10:48:06.052Z,102906.28
2022-12-01T10:50:34.514Z,102927.28
2022-12-01T10:53:03.156Z,102924.31
2022-12-01T10:55:34.017Z,102924.44
2022-12-01T10:58:09.401Z,102925.06
2022-12-01T11:03:32.035Z,102920.56
2022-12-01T11:06:02.068Z,102924.44
2022-12-01T11:08:38.832Z,102924.25
2022-12-01T11:11:08.205Z,102914.81
2022-12-01T11:13:38.426Z,102915.16
2022-12-01T11:16:08.680Z,102919.50
2022-12-01T11:18:38.837Z,102919.50
2022-12-01T11:21:10.726Z,102911.28
2022-12-01T11:23:40.319Z,102914.81
2022-12-01T11:26:14.704Z,102914.63
2022-12-01T11:28:53.499Z,102926.19
2022-12-01T11:31:24.405Z,102908.44
2022-12-01T11:33:54.056Z,102908.78
2022-12-01T11:36:26.739Z,102911.94
2022-12-01T11:38:58.175Z,102916.88
2022-12-01T11:41:30.672Z,102911.72
2022-12-01T11:44:02.076Z,102914.72
2022-12-01T11:46:34.951Z,102911.91
2022-12-01T11:49:03.192Z,102913.84
2022-12-01T11:51:37.915Z,102920.09
2022-12-01T11:54:09.108Z,102912.31
2022-12-01T11:56:38.155Z,102923.97
2022-12-01T11:59:13.102Z,102910.78
2022-12-01T12:02:03.778Z,102921.59
2022-12-01T12:04:46.189Z,102915.75
2022-12-01T12:07:20.561Z,102923.97
2022-12-01T12:10:01.350Z,102910.00
2022-12-01T12:12:41.786Z,102915.72
2022-12-01T12:15:19.504Z,102918.34
2022-12-01T12:17:57.976Z,102913.16
2022-12-01T12:20:37.215Z,102917.78
2022-12-01T12:23:16.802Z,102923.72
2022-12-01T12:25:54.537Z,102914.09
2022-12-01T12:28:33.772Z,102907.03
2022-12-01T12:31:10.680Z,102914.19
2022-12-01T12:34:11.644Z,102909.00
2022-12-01T12:36:45.663Z,102912.56
2022-12-01T12:39:27.633Z,102917.00
2022-12-01T12:41:57.433Z,102922.56
2022-12-01T12:44:45.098Z,102917.47
2022-12-01T12:47:24.461Z,102925.88
2022-12-01T12:49:59.539Z,102930.19
2022-12-01T12:52:33.362Z,102917.47
2022-12-01T12:55:06.322Z,102920.72
2022-12-01T12:57:36.958Z,102927.16
2022-12-01T13:00:08.515Z,102933.13
2022-12-01T13:02:42.883Z,102936.03
2022-12-01T13:05:16.556Z,102922.72
2022-12-01T13:07:48.010Z,102924.66
2022-12-01T13:10:25.507Z,102917.91
2022-12-01T13:12:58.230Z,102922.56
2022-12-01T13:15:26.844Z,102916.78
2022-12-01T13:18:00.497Z,102923.34
2022-12-01T13:20:32.364Z,102921.41
2022-12-01T13:23:02.556Z,102932.19
2022-12-01T13:25:34.598Z,102929.69
2022-12-01T13:28:03.739Z,102937.78
2022-12-01T13:30:31.965Z,102929.00
2022-12-01T13:33:03.815Z,102935.28
2022-12-01T13:35:34.712Z,102931.81
2022-12-01T13:38:22.347Z,102927.19
2022-12-01T13:40:50.886Z,102918.50
2022-12-01T13:43:21.221Z,102934.69
2022-12-01T13:45:50.578Z,102925.25
2022-12-01T13:48:31.456Z,102919.84
2022-12-01T13:51:01.762Z,102915.06
2022-12-01T13:53:35.227Z,102911.56
2022-12-01T13:56:29.437Z,102918.91
2022-12-01T13:58:57.640Z,102913.13
2022-12-01T14:01:46.962Z,102914.25
2022-12-01T14:04:31.389Z,102912.34
2022-12-01T14:07:24.542Z,102917.94
2022-12-01T14:09:54.094Z,102916.19
2022-12-01T14:12:25.406Z,102916.19
2022-12-01T14:14:56.355Z,102907.53
2022-12-01T14:17:38.782Z,102895.38
2022-12-01T14:20:20.768Z,102903.19
2022-12-01T14:22:50.644Z,102898.25
2022-12-01T14:25:25.779Z,102899.25
2022-12-01T14:27:55.796Z,102897.09
2022-12-01T14:31:01.299Z,102895.19
2022-12-01T14:33:47.336Z,102899.03
2022-12-01T14:36:28.181Z,102905.31
2022-12-01T14:39:03.598Z,102907.88
2022-12-01T14:41:43.265Z,102899.03
2022-12-01T14:44:16.892Z,102898.81
2022-12-01T14:46:50.346Z,102902.72
2022-12-01T14:49:21.825Z,102900.88
2022-12-01T14:51:55.271Z,102910.03
2022-12-01T14:54:27.556Z,102913.78
2022-12-01T14:57:02.701Z,102902.81
2022-12-01T14:59:34.588Z,102905.97
2022-12-01T15:02:09.190Z,102889.59
2022-12-01T15:04:38.429Z,102875.94
2022-12-01T15:07:08.733Z,102894.22
2022-12-01T15:09:37.033Z,102899.63
2022-12-01T15:12:08.246Z,102884.22
2022-12-01T15:14:38.799Z,102893.84
2022-12-01T15:17:09.288Z,102881.13
2022-12-01T15:19:40.732Z,102880.56
2022-12-01T15:22:15.394Z,102887.69
2022-12-01T15:24:44.459Z,102889.59
2022-12-01T15:27:27.396Z,102902.50
2022-12-01T15:29:56.596Z,102895.66
2022-12-01T15:32:25.578Z,102887.09
2022-12-01T15:34:55.806Z,102895.03
2022-12-01T15:37:27.911Z,102891.25
2022-12-01T15:40:35.685Z,102903.66
2022-12-01T15:42:46.983Z,102902.22
2022-12-01T15:45:19.665Z,102899.72
2022-12-01T15:47:49.801Z,102900.22
2022-12-01T15:50:31.448Z,102899.44
2022-12-01T15:53:03.235Z,102901.75
2022-12-01T15:55:34.043Z,102899.34
2022-12-01T15:58:03.109Z,102896.38
2022-12-01T16:00:31.358Z,102888.66
2022-12-01T16:03:06.865Z,102893.25
2022-12-01T16:05:37.033Z,102888.34
2022-12-01T16:08:19.977Z,102897.97
2022-12-01T16:11:13.048Z,102891.72
2022-12-01T16:13:48.980Z,102905.56
2022-12-01T16:16:29.798Z,102895.66
2022-12-01T16:19:00.447Z,102891.91
2022-12-01T16:21:29.088Z,102868.59
2022-12-01T16:24:03.489Z,102862.09
2022-12-01T16:26:32.602Z,102883.63
2022-12-01T16:29:01.257Z,102877.47
2022-12-01T16:31:30.407Z,102879.94
2022-12-01T16:34:13.752Z,102877.50
2022-12-01T16:36:47.028Z,102878.03
2022-12-01T16:39:17.113Z,102874.09
2022-12-01T16:41:47.018Z,102876.63
2022-12-01T16:44:31.127Z,102871.03
2022-12-01T16:46:59.710Z,102863.03
2022-12-01T16:49:28.748Z,102879.78
2022-12-01T16:51:57.531Z,102885.97
2022-12-01T16:54:29.003Z,102874.81
2022-12-01T16:56:57.743Z,102870.97
2022-12-01T16:59:26.146Z,102881.91
2022-12-01T17:01:54.629Z,102891.81
2022-12-01T17:04:22.957Z,102883.84
2022-12-01T17:06:51.372Z,102883.34
2022-12-01T17:09:19.873Z,102875.19
2022-12-01T17:11:49.745Z,102873.25
2022-12-01T17:14:18.050Z,102876.03
2022-12-01T17:16:46.501Z,102869.59
2022-12-01T17:19:14.952Z,102878.06
2022-12-01T17:21:43.431Z,102866.41
2022-12-01T17:24:14.977Z,102874.59
2022-12-01T17:26:46.205Z,102866.31
2022-12-01T17:29:16.624Z,102882.31
2022-12-01T17:31:44.881Z,102876.72
2022-12-01T17:34:13.200Z,102860.53
2022-12-01T17:36:41.903Z,102855.72
2022-12-01T17:39:10.276Z,102868.81
2022-12-01T17:41:38.580Z,102858.63
2022-12-01T17:44:07.341Z,102866.13
2022-12-01T17:46:38.592Z,102870.06
2022-12-01T17:49:09.655Z,102864.59
2022-12-01T17:51:38.685Z,102860.91
2022-12-01T17:54:07.282Z,102855.34
2022-12-01T17:56:36.107Z,102856.31
2022-12-01T17:59:04.509Z,102856.09
2022-12-01T18:01:33.891Z,102854.94
2022-12-01T18:04:03.804Z,102857.38
2022-12-01T18:06:32.177Z,102854.38
2022-12-01T18:09:01.646Z,102854.19
2022-12-01T18:11:30.412Z,102855.53
2022-12-01T18:13:59.557Z,102862.88
2022-12-01T18:16:30.456Z,102848.59
2022-12-01T18:19:00.361Z,102857.06
2022-12-01T18:21:31.118Z,102867.38
2022-12-01T18:24:01.017Z,102864.69
2022-12-01T18:26:30.205Z,102846.31
2022-12-01T18:29:00.389Z,102863.94
2022-12-01T18:31:31.007Z,102863.41
2022-12-01T18:34:02.775Z,102857.38
2022-12-01T18:36:34.299Z,102855.25
2022-12-01T18:39:03.486Z,102861.22
2022-12-01T18:41:32.327Z,102852.53
2022-12-01T18:44:01.408Z,102851.88
2022-12-01T18:46:30.995Z,102851.13
2022-12-01T18:49:02.243Z,102853.72
2022-12-01T18:51:32.878Z,102850.72
2022-12-01T18:54:03.352Z,102846.09
2022-12-01T18:56:32.388Z,102859.38
2022-12-01T18:59:02.465Z,102868.94
2022-12-01T19:01:32.977Z,102846.28
2022-12-01T19:04:02.312Z,102870.53
2022-12-01T19:06:33.271Z,102867.84
2022-12-01T19:09:03.518Z,102868.94
2022-12-01T19:11:33.402Z,102876.13
2022-12-01T19:14:02.151Z,102872.84
2022-12-01T19:16:31.212Z,102883.81
2022-12-01T19:19:00.096Z,102883.28
2022-12-01T19:21:28.572Z,102884.03
2022-12-01T19:23:59.557Z,102879.19
2022-12-01T19:26:27.813Z,102878.84
2022-12-01T19:28:56.197Z,102879.69
2022-12-01T19:31:25.871Z,102877.44
2022-12-01T19:33:55.649Z,102874.34
2022-12-01T19:36:26.780Z,102872.31
2022-12-01T19:39:00.163Z,102885.31
2022-12-01T19:41:29.562Z,102881.84
2022-12-01T19:43:57.921Z,102879.94
2022-12-01T19:46:28.949Z,102893.00
2022-12-01T19:49:00.416Z,102888.16
2022-12-01T19:51:30.652Z,102898.50
2022-12-01T19:54:00.459Z,102902.25
2022-12-01T19:56:29.407Z,102900.13
2022-12-01T19:58:58.347Z,102895.69
2022-12-01T20:01:27.598Z,102899.84
2022-12-01T20:03:56.810Z,102902.63
2022-12-01T20:06:27.002Z,102907.66
2022-12-01T20:08:56.555Z,102907.91
2022-12-01T20:11:26.562Z,102910.44
2022-12-01T20:13:55.034Z,102907.41
2022-12-01T20:16:24.953Z,102905.59
2022-12-01T20:18:53.876Z,102913.22
2022-12-01T20:21:23.571Z,102905.41
2022-12-01T20:23:53.504Z,102906.53
2022-12-01T20:26:27.569Z,102901.84
2022-12-01T20:29:03.509Z,102897.28
2022-12-01T20:31:33.254Z,102899.88
2022-12-01T20:34:03.895Z,102894.22
2022-12-01T20:36:32.799Z,102898.47
2022-12-01T20:39:01.423Z,102894.66
2022-12-01T20:41:29.920Z,102900.91
2022-12-01T20:44:01.221Z,102902.28
2022-12-01T20:46:35.190Z,102909.78
2022-12-01T20:49:03.881Z,102896.91
2022-12-01T20:51:33.555Z,102893.97
2022-12-01T20:54:26.725Z,102896.22
2022-12-01T20:56:50.177Z,102898.13
2022-12-01T20:59:18.506Z,102896.84
2022-12-01T21:01:48.185Z,102902.72
2022-12-01T21:04:16.962Z,102897.69
2022-12-01T21:06:45.587Z,102903.69
2022-12-01T21:09:15.109Z,102915.63
2022-12-01T21:12:04.326Z,102911.50
2022-12-01T21:14:37.858Z,102905.75
2022-12-01T21:17:13.850Z,102918.94
2022-12-01T21:19:52.412Z,102908.47
2022-12-01T21:22:20.744Z,102908.81
2022-12-01T21:24:51.867Z,102917.19
2022-12-01T21:27:20.408Z,102919.81
2022-12-01T21:29:49.839Z,102915.81
2022-12-01T21:32:21.083Z,102908.72
2022-12-01T21:34:50.408Z,102911.66
2022-12-01T21:37:22.361Z,102901.00
2022-12-01T21:39:51.229Z,102900.03
2022-12-01T21:42:21.564Z,102897.78
2022-12-01T21:44:50.941Z,102897.25
2022-12-01T21:47:22.754Z,102900.28
2022-12-01T21:49:54.170Z,102900.66
2022-12-01T21:52:25.176Z,102896.03
2022-12-01T21:54:53.501Z,102892.91
2022-12-01T21:57:42.803Z,102902.44
2022-12-01T22:00:29.071Z,102891.13
2022-12-01T22:03:17.644Z,102886.13
2022-12-01T22:06:06.959Z,102889.53
2022-12-01T22:08:38.536Z,102879.41
2022-12-01T22:11:11.877Z,102888.88
2022-12-01T22:13:44.268Z,102889.41
2022-12-01T22:16:17.989Z,102894.41
2022-12-01T22:18:51.031Z,102896.47
2022-12-01T22:21:38.687Z,102888.09
2022-12-01T22:24:22.788Z,102894.94
2022-12-01T22:26:53.228Z,102884.66
2022-12-01T22:29:29.033Z,102899.78
2022-12-01T22:32:38.693Z,102898.03
2022-12-01T22:35:28.487Z,102895.78
2022-12-01T22:38:01.744Z,102900.28
2022-12-01T22:40:37.931Z,102887.22
2022-12-01T22:43:23.174Z,102901.69
2022-12-01T22:46:03.066Z,102897.56
2022-12-01T22:48:35.917Z,102885.66
2022-12-01T22:51:17.710Z,102886.16
2022-12-01T22:53:46.981Z,102881.03
2022-12-01T22:56:28.369Z,102881.09
2022-12-01T22:58:56.995Z,102883.31
2022-12-01T23:01:29.085Z,102884.44
2022-12-01T23:04:14.886Z,102878.94
2022-12-01T23:06:55.453Z,102888.97
2022-12-01T23:09:25.511Z,102895.94
2022-12-01T23:11:57.718Z,102896.03
2022-12-01T23:14:25.992Z,102894.94
2022-12-01T23:17:01.341Z,102899.00
2022-12-01T23:19:29.826Z,102894.41
2022-12-01T23:21:59.384Z,102893.75
2022-12-01T23:24:32.331Z,102900.31
2022-12-01T23:27:01.979Z,102887.38
2022-12-01T23:29:31.101Z,102882.91
2022-12-01T23:31:59.380Z,102887.50
2022-12-01T23:34:27.720Z,102875.03
2022-12-01T23:36:56.107Z,102887.75
2022-12-01T23:39:30.868Z,102885.53
2022-12-01T23:41:59.421Z,102877.38
2022-12-01T23:44:37.509Z,102887.50
2022-12-01T23:47:13.293Z,102882.22
2022-12-01T23:49:41.560Z,102880.41
2022-12-01T23:52:12.432Z,102882.28
2022-12-01T23:54:42.056Z,102878.25
2022-12-01T23:57:13.545Z,102879.59
2022-12-01T23:59:41.792Z,102877.31
